Terminal Aerodrome Forecast
Issued by NWS

Current Version | Previous Version | Graphics & Text | Print | Product List | Glossary On
Versions: 1 2 3 4 5 6 7 8 9 10 11 12 13 14 15
000
FTUS41 KILN 211000 AAC
TAFLUK
TAF AMD
KLUK 211015Z 2110/2206 02007KT P6SM BKN025 OVC040
     FM211300 02005KT P6SM SCT010 BKN015
     FM211500 36006KT P6SM OVC025
     FM211700 33008KT P6SM BKN035
     FM212000 32010KT P6SM SCT045
     FM220500 28004KT P6SM FEW040=

USA.gov is the U.S. government's official web portal to all federal, state and local government web resources and services.